sensor_id;sensor_type;location;lat;lon;timestamp;pressure;altitude;pressure_sealevel;temperature;humidity
59289;BME280;45056;47.602;9.886;2023-06-26T00:00:49;93125.34;;;20.69;48.63
59289;BME280;45056;47.602;9.886;2023-06-26T00:03:17;93122.31;;;20.67;48.57
59289;BME280;45056;47.602;9.886;2023-06-26T00:05:45;93118.06;;;20.66;48.77
59289;BME280;45056;47.602;9.886;2023-06-26T00:08:13;93125.09;;;20.67;48.58
59289;BME280;45056;47.602;9.886;2023-06-26T00:10:41;93124.34;;;20.67;48.08
59289;BME280;45056;47.602;9.886;2023-06-26T00:13:10;93122.09;;;20.71;47.93
59289;BME280;45056;47.602;9.886;2023-06-26T00:15:38;93116.03;;;20.72;47.77
59289;BME280;45056;47.602;9.886;2023-06-26T00:18:06;93117.06;;;20.75;47.46
59289;BME280;45056;47.602;9.886;2023-06-26T00:20:35;93120.06;;;20.77;47.58
59289;BME280;45056;47.602;9.886;2023-06-26T00:23:03;93118.34;;;20.80;47.63
59289;BME280;45056;47.602;9.886;2023-06-26T00:25:33;93127.63;;;20.82;47.44
59289;BME280;45056;47.602;9.886;2023-06-26T00:28:02;93116.06;;;20.84;46.96
59289;BME280;45056;47.602;9.886;2023-06-26T00:30:31;93124.09;;;20.87;46.55
59289;BME280;45056;47.602;9.886;2023-06-26T00:33:00;93117.06;;;20.92;46.41
59289;BME280;45056;47.602;9.886;2023-06-26T00:35:28;93124.34;;;20.95;46.72
59289;BME280;45056;47.602;9.886;2023-06-26T00:37:56;93122.59;;;20.98;46.73
59289;BME280;45056;47.602;9.886;2023-06-26T00:40:24;93118.03;;;21.00;46.29
59289;BME280;45056;47.602;9.886;2023-06-26T00:42:53;93120.03;;;21.05;46.01
59289;BME280;45056;47.602;9.886;2023-06-26T00:45:21;93116.53;;;21.05;46.24
59289;BME280;45056;47.602;9.886;2023-06-26T00:47:50;93119.78;;;21.03;46.36
59289;BME280;45056;47.602;9.886;2023-06-26T00:50:19;93124.09;;;20.99;46.48
59289;BME280;45056;47.602;9.886;2023-06-26T00:52:47;93127.34;;;20.97;46.70
59289;BME280;45056;47.602;9.886;2023-06-26T00:55:16;93124.09;;;20.93;46.73
59289;BME280;45056;47.602;9.886;2023-06-26T00:57:44;93117.56;;;20.90;46.78
59289;BME280;45056;47.602;9.886;2023-06-26T01:00:13;93118.06;;;20.89;46.62
59289;BME280;45056;47.602;9.886;2023-06-26T01:02:42;93121.09;;;20.91;46.66
59289;BME280;45056;47.602;9.886;2023-06-26T01:05:13;93125.88;;;20.90;46.80
59289;BME280;45056;47.602;9.886;2023-06-26T01:07:48;93126.38;;;20.89;46.81
59289;BME280;45056;47.602;9.886;2023-06-26T01:10:17;93119.31;;;20.88;46.84
59289;BME280;45056;47.602;9.886;2023-06-26T01:12:46;93125.34;;;20.86;47.06
59289;BME280;45056;47.602;9.886;2023-06-26T01:15:14;93117.31;;;20.83;46.94
59289;BME280;45056;47.602;9.886;2023-06-26T01:17:42;93119.84;;;20.81;47.00
59289;BME280;45056;47.602;9.886;2023-06-26T01:20:15;93117.28;;;20.77;46.82
59289;BME280;45056;47.602;9.886;2023-06-26T01:22:50;93119.31;;;20.71;46.85
59289;BME280;45056;47.602;9.886;2023-06-26T01:25:35;93122.84;;;20.66;47.21
59289;BME280;45056;47.602;9.886;2023-06-26T01:28:13;93119.59;;;20.61;47.31
59289;BME280;45056;47.602;9.886;2023-06-26T01:30:45;93120.31;;;20.56;47.42
59289;BME280;45056;47.602;9.886;2023-06-26T01:33:15;93122.56;;;20.52;47.59
59289;BME280;45056;47.602;9.886;2023-06-26T01:35:44;93114.56;;;20.49;47.72
59289;BME280;45056;47.602;9.886;2023-06-26T01:38:14;93118.31;;;20.45;47.93
59289;BME280;45056;47.602;9.886;2023-06-26T01:40:44;93116.53;;;20.42;48.00
59289;BME280;45056;47.602;9.886;2023-06-26T01:43:21;93108.00;;;20.40;48.35
59289;BME280;45056;47.602;9.886;2023-06-26T01:46:00;93107.75;;;20.38;48.52
59289;BME280;45056;47.602;9.886;2023-06-26T01:48:45;93102.75;;;20.37;48.68
59289;BME280;45056;47.602;9.886;2023-06-26T01:51:20;93109.53;;;20.36;49.04
59289;BME280;45056;47.602;9.886;2023-06-26T01:53:57;93117.81;;;20.36;48.91
59289;BME280;45056;47.602;9.886;2023-06-26T01:56:28;93116.31;;;20.35;49.02
59289;BME280;45056;47.602;9.886;2023-06-26T01:59:00;93117.28;;;20.37;49.10
59289;BME280;45056;47.602;9.886;2023-06-26T02:01:32;93123.59;;;20.38;48.97
59289;BME280;45056;47.602;9.886;2023-06-26T02:04:00;93117.28;;;20.37;49.00
59289;BME280;45056;47.602;9.886;2023-06-26T02:06:28;93128.34;;;20.37;48.86
59289;BME280;45056;47.602;9.886;2023-06-26T02:08:56;93128.09;;;20.35;49.07
59289;BME280;45056;47.602;9.886;2023-06-26T02:11:24;93122.56;;;20.35;49.14
59289;BME280;45056;47.602;9.886;2023-06-26T02:13:52;93127.84;;;20.33;48.93
59289;BME280;45056;47.602;9.886;2023-06-26T02:16:21;93126.34;;;20.32;49.13
59289;BME280;45056;47.602;9.886;2023-06-26T02:18:50;93126.09;;;20.30;48.92
59289;BME280;45056;47.602;9.886;2023-06-26T02:21:17;93132.13;;;20.28;48.90
59289;BME280;45056;47.602;9.886;2023-06-26T02:23:46;93125.06;;;20.27;48.93
59289;BME280;45056;47.602;9.886;2023-06-26T02:26:14;93124.81;;;20.25;48.91
59289;BME280;45056;47.602;9.886;2023-06-26T02:28:42;93132.38;;;20.25;48.97
59289;BME280;45056;47.602;9.886;2023-06-26T02:31:10;93136.38;;;20.24;49.07
59289;BME280;45056;47.602;9.886;2023-06-26T02:33:39;93122.56;;;20.24;49.19
59289;BME280;45056;47.602;9.886;2023-06-26T02:36:09;93129.34;;;20.23;49.34
59289;BME280;45056;47.602;9.886;2023-06-26T02:38:37;93138.88;;;20.22;49.40
59289;BME280;45056;47.602;9.886;2023-06-26T02:41:05;93132.59;;;20.21;49.63
59289;BME280;45056;47.602;9.886;2023-06-26T02:43:33;93132.34;;;20.19;49.68
59289;BME280;45056;47.602;9.886;2023-06-26T02:46:00;93132.34;;;20.19;49.77
59289;BME280;45056;47.602;9.886;2023-06-26T02:48:28;93136.63;;;20.20;49.92
59289;BME280;45056;47.602;9.886;2023-06-26T02:50:58;93132.34;;;20.19;50.01
59289;BME280;45056;47.602;9.886;2023-06-26T02:53:26;93131.59;;;20.18;50.00
59289;BME280;45056;47.602;9.886;2023-06-26T02:55:54;93137.88;;;20.19;49.95
59289;BME280;45056;47.602;9.886;2023-06-26T02:58:22;93139.91;;;20.18;49.90
59289;BME280;45056;47.602;9.886;2023-06-26T03:00:50;93132.09;;;20.17;49.90
59289;BME280;45056;47.602;9.886;2023-06-26T03:03:19;93138.38;;;20.17;50.16
59289;BME280;45056;47.602;9.886;2023-06-26T03:05:47;93141.88;;;20.18;50.15
59289;BME280;45056;47.602;9.886;2023-06-26T03:08:17;93136.88;;;20.16;50.36
59289;BME280;45056;47.602;9.886;2023-06-26T03:10:45;93134.59;;;20.15;50.32
59289;BME280;45056;47.602;9.886;2023-06-26T03:13:13;93140.13;;;20.15;50.45
59289;BME280;45056;47.602;9.886;2023-06-26T03:15:41;93140.63;;;20.13;50.20
59289;BME280;45056;47.602;9.886;2023-06-26T03:18:08;93139.09;;;20.12;50.38
59289;BME280;45056;47.602;9.886;2023-06-26T03:20:37;93141.63;;;20.10;50.39
59289;BME280;45056;47.602;9.886;2023-06-26T03:23:05;93144.88;;;20.09;50.61
59289;BME280;45056;47.602;9.886;2023-06-26T03:25:34;93141.09;;;20.06;50.94
59289;BME280;45056;47.602;9.886;2023-06-26T03:28:02;93136.84;;;20.05;50.97
59289;BME280;45056;47.602;9.886;2023-06-26T03:30:30;93141.63;;;20.04;50.83
59289;BME280;45056;47.602;9.886;2023-06-26T03:32:58;93142.38;;;20.05;51.08
59289;BME280;45056;47.602;9.886;2023-06-26T03:35:26;93147.88;;;20.05;50.98
59289;BME280;45056;47.602;9.886;2023-06-26T03:37:54;93151.41;;;20.06;51.14
59289;BME280;45056;47.602;9.886;2023-06-26T03:40:22;93148.41;;;20.03;51.34
59289;BME280;45056;47.602;9.886;2023-06-26T03:42:51;93153.91;;;20.03;51.14
59289;BME280;45056;47.602;9.886;2023-06-26T03:45:20;93154.19;;;20.06;51.01
59289;BME280;45056;47.602;9.886;2023-06-26T03:47:48;93147.66;;;20.09;49.76
59289;BME280;45056;47.602;9.886;2023-06-26T03:50:16;93149.19;;;20.15;49.05
59289;BME280;45056;47.602;9.886;2023-06-26T03:52:45;93154.22;;;20.23;48.57
59289;BME280;45056;47.602;9.886;2023-06-26T03:55:13;93150.47;;;20.31;48.30
59289;BME280;45056;47.602;9.886;2023-06-26T03:57:41;93159.00;;;20.39;47.76
59289;BME280;45056;47.602;9.886;2023-06-26T04:00:12;93151.50;;;20.45;47.70
59289;BME280;45056;47.602;9.886;2023-06-26T04:02:40;93154.22;;;20.51;47.50
59289;BME280;45056;47.602;9.886;2023-06-26T04:05:08;93157.75;;;20.57;47.49
59289;BME280;45056;47.602;9.886;2023-06-26T04:07:37;93155.75;;;20.64;47.46
59289;BME280;45056;47.602;9.886;2023-06-26T04:10:07;93152.97;;;20.69;47.08
59289;BME280;45056;47.602;9.886;2023-06-26T04:12:35;93153.75;;;20.75;46.94
59289;BME280;45056;47.602;9.886;2023-06-26T04:15:04;93157.78;;;20.80;46.98
59289;BME280;45056;47.602;9.886;2023-06-26T04:17:34;93154.00;;;20.83;47.00
59289;BME280;45056;47.602;9.886;2023-06-26T04:20:02;93154.25;;;20.85;47.00
59289;BME280;45056;47.602;9.886;2023-06-26T04:22:32;93153.25;;;20.88;47.12
59289;BME280;45056;47.602;9.886;2023-06-26T04:25:03;93153.78;;;20.93;46.96
59289;BME280;45056;47.602;9.886;2023-06-26T04:27:31;93162.03;;;20.98;46.97
59289;BME280;45056;47.602;9.886;2023-06-26T04:29:59;93164.06;;;21.03;46.85
59289;BME280;45056;47.602;9.886;2023-06-26T04:32:27;93163.81;;;21.07;46.85
59289;BME280;45056;47.602;9.886;2023-06-26T04:34:57;93165.81;;;21.12;46.81
59289;BME280;45056;47.602;9.886;2023-06-26T04:37:25;93162.28;;;21.17;46.70
59289;BME280;45056;47.602;9.886;2023-06-26T04:39:53;93162.28;;;21.23;46.71
59289;BME280;45056;47.602;9.886;2023-06-26T04:42:22;93173.34;;;21.29;46.55
59289;BME280;45056;47.602;9.886;2023-06-26T04:44:50;93172.03;;;21.36;46.56
59289;BME280;45056;47.602;9.886;2023-06-26T04:47:18;93174.06;;;21.41;47.05
59289;BME280;45056;47.602;9.886;2023-06-26T04:49:46;93169.75;;;21.45;47.00
59289;BME280;45056;47.602;9.886;2023-06-26T04:52:15;93165.97;;;21.54;46.82
59289;BME280;45056;47.602;9.886;2023-06-26T04:54:43;93163.94;;;21.60;46.92
59289;BME280;45056;47.602;9.886;2023-06-26T04:57:11;93177.25;;;21.73;47.02
59289;BME280;45056;47.602;9.886;2023-06-26T04:59:41;93165.88;;;22.78;45.41
59289;BME280;45056;47.602;9.886;2023-06-26T05:02:09;93168.63;;;24.98;41.65
59289;BME280;45056;47.602;9.886;2023-06-26T05:04:37;93163.53;;;27.35;37.55
59289;BME280;45056;47.602;9.886;2023-06-26T05:07:09;93165.81;;;29.54;34.30
59289;BME280;45056;47.602;9.886;2023-06-26T05:09:38;93172.53;;;31.38;31.49
59289;BME280;45056;47.602;9.886;2023-06-26T05:12:07;93171.41;;;32.82;28.92
59289;BME280;45056;47.602;9.886;2023-06-26T05:14:35;93183.13;;;34.00;27.54
59289;BME280;45056;47.602;9.886;2023-06-26T05:17:04;93164.88;;;34.70;25.44
59289;BME280;45056;47.602;9.886;2023-06-26T05:19:32;93171.72;;;34.67;25.18
59289;BME280;45056;47.602;9.886;2023-06-26T05:22:01;93176.94;;;34.12;25.59
59289;BME280;45056;47.602;9.886;2023-06-26T05:24:30;93175.03;;;33.67;26.31
59289;BME280;45056;47.602;9.886;2023-06-26T05:27:00;93179.78;;;33.55;26.00
59289;BME280;45056;47.602;9.886;2023-06-26T05:29:31;93177.25;;;33.21;25.86
59289;BME280;45056;47.602;9.886;2023-06-26T05:32:01;93183.31;;;32.63;26.75
59289;BME280;45056;47.602;9.886;2023-06-26T05:34:29;93178.81;;;32.60;26.59
59289;BME280;45056;47.602;9.886;2023-06-26T05:37:00;93180.59;;;32.20;27.32
59289;BME280;45056;47.602;9.886;2023-06-26T05:39:29;93177.50;;;31.47;27.96
59289;BME280;45056;47.602;9.886;2023-06-26T05:42:02;93165.53;;;30.55;29.31
59289;BME280;45056;47.602;9.886;2023-06-26T05:44:31;93180.56;;;29.62;30.48
59289;BME280;45056;47.602;9.886;2023-06-26T05:46:59;93175.50;;;28.91;31.88
59289;BME280;45056;47.602;9.886;2023-06-26T05:49:28;93173.53;;;28.62;32.66
59289;BME280;45056;47.602;9.886;2023-06-26T05:51:56;93172.47;;;28.21;33.51
59289;BME280;45056;47.602;9.886;2023-06-26T05:54:25;93170.50;;;27.71;34.23
59289;BME280;45056;47.602;9.886;2023-06-26T05:56:56;93173.88;;;27.27;34.73
59289;BME280;45056;47.602;9.886;2023-06-26T05:59:27;93173.78;;;26.90;34.64
59289;BME280;45056;47.602;9.886;2023-06-26T06:01:59;93168.59;;;26.60;35.03
59289;BME280;45056;47.602;9.886;2023-06-26T06:04:27;93175.44;;;26.38;35.44
59289;BME280;45056;47.602;9.886;2023-06-26T06:06:55;93174.81;;;26.18;35.32
59289;BME280;45056;47.602;9.886;2023-06-26T06:09:23;93165.19;;;26.05;35.35
59289;BME280;45056;47.602;9.886;2023-06-26T06:11:51;93166.56;;;25.99;35.28
59289;BME280;45056;47.602;9.886;2023-06-26T06:14:19;93162.28;;;25.98;35.45
59289;BME280;45056;47.602;9.886;2023-06-26T06:16:48;93163.25;;;26.00;35.32
59289;BME280;45056;47.602;9.886;2023-06-26T06:19:16;93163.91;;;25.93;35.67
59289;BME280;45056;47.602;9.886;2023-06-26T06:21:44;93164.53;;;25.86;35.86
59289;BME280;45056;47.602;9.886;2023-06-26T06:24:12;93174.19;;;25.85;36.19
59289;BME280;45056;47.602;9.886;2023-06-26T06:26:40;93168.41;;;25.83;36.14
59289;BME280;45056;47.602;9.886;2023-06-26T06:29:08;93174.63;;;25.75;36.14
59289;BME280;45056;47.602;9.886;2023-06-26T06:31:36;93181.59;;;25.69;36.57
59289;BME280;45056;47.602;9.886;2023-06-26T06:34:06;93176.66;;;25.61;36.55
59289;BME280;45056;47.602;9.886;2023-06-26T06:36:34;93176.75;;;25.56;36.34
59289;BME280;45056;47.602;9.886;2023-06-26T06:39:02;93181.91;;;25.52;36.33
59289;BME280;45056;47.602;9.886;2023-06-26T06:41:30;93173.03;;;25.53;36.41
59289;BME280;45056;47.602;9.886;2023-06-26T06:43:58;93174.84;;;25.50;36.28
59289;BME280;45056;47.602;9.886;2023-06-26T06:46:26;93176.66;;;25.48;36.33
59289;BME280;45056;47.602;9.886;2023-06-26T06:48:54;93182.53;;;25.44;36.27
59289;BME280;45056;47.602;9.886;2023-06-26T06:51:24;93187.66;;;25.40;36.46
59289;BME280;45056;47.602;9.886;2023-06-26T06:53:52;93193.53;;;25.36;36.74
59289;BME280;45056;47.602;9.886;2023-06-26T06:56:20;93193.53;;;25.36;37.08
59289;BME280;45056;47.602;9.886;2023-06-26T06:58:48;93189.16;;;25.41;37.00
59289;BME280;45056;47.602;9.886;2023-06-26T07:01:16;93190.81;;;25.50;37.83
59289;BME280;45056;47.602;9.886;2023-06-26T07:03:44;93187.16;;;25.55;38.23
59289;BME280;45056;47.602;9.886;2023-06-26T07:06:12;93191.97;;;25.55;37.69
59289;BME280;45056;47.602;9.886;2023-06-26T07:08:41;93190.47;;;25.54;37.04
59289;BME280;45056;47.602;9.886;2023-06-26T07:11:09;93199.16;;;25.50;37.09
59289;BME280;45056;47.602;9.886;2023-06-26T07:13:37;93188.84;;;25.45;36.97
59289;BME280;45056;47.602;9.886;2023-06-26T07:16:05;93197.50;;;25.41;36.89
59289;BME280;45056;47.602;9.886;2023-06-26T07:18:33;93192.47;;;25.40;37.11
59289;BME280;45056;47.602;9.886;2023-06-26T07:21:01;93191.50;;;25.37;37.14
59289;BME280;45056;47.602;9.886;2023-06-26T07:23:29;93194.28;;;25.37;37.26
59289;BME280;45056;47.602;9.886;2023-06-26T07:25:59;93202.88;;;25.39;37.36
59289;BME280;45056;47.602;9.886;2023-06-26T07:28:27;93200.31;;;25.41;37.40
59289;BME280;45056;47.602;9.886;2023-06-26T07:30:55;93199.75;;;25.43;37.22
59289;BME280;45056;47.602;9.886;2023-06-26T07:33:23;93196.22;;;25.42;36.83
59289;BME280;45056;47.602;9.886;2023-06-26T07:35:51;93196.75;;;25.41;36.63
59289;BME280;45056;47.602;9.886;2023-06-26T07:38:19;93196.00;;;25.40;36.54
59289;BME280;45056;47.602;9.886;2023-06-26T07:40:47;93194.72;;;25.41;36.62
59289;BME280;45056;47.602;9.886;2023-06-26T07:43:16;93198.50;;;25.44;36.87
59289;BME280;45056;47.602;9.886;2023-06-26T07:45:44;93194.66;;;25.47;36.74
59289;BME280;45056;47.602;9.886;2023-06-26T07:48:12;93195.41;;;25.47;37.00
59289;BME280;45056;47.602;9.886;2023-06-26T07:50:40;93195.41;;;25.47;36.50
59289;BME280;45056;47.602;9.886;2023-06-26T07:53:08;93195.63;;;25.49;36.70
59289;BME280;45056;47.602;9.886;2023-06-26T07:55:36;93199.91;;;25.50;36.26
59289;BME280;45056;47.602;9.886;2023-06-26T07:58:04;93199.91;;;25.50;35.98
59289;BME280;45056;47.602;9.886;2023-06-26T08:00:34;93195.84;;;25.52;36.18
59289;BME280;45056;47.602;9.886;2023-06-26T08:03:02;93189.75;;;25.53;36.42
59289;BME280;45056;47.602;9.886;2023-06-26T08:05:30;93194.44;;;25.58;36.66
59289;BME280;45056;47.602;9.886;2023-06-26T08:07:58;93195.66;;;25.63;36.51
59289;BME280;45056;47.602;9.886;2023-06-26T08:10:28;93194.78;;;25.68;36.28
59289;BME280;45056;47.602;9.886;2023-06-26T08:12:56;93197.03;;;25.70;36.23
59289;BME280;45056;47.602;9.886;2023-06-26T08:15:25;93193.50;;;25.69;36.29
59289;BME280;45056;47.602;9.886;2023-06-26T08:17:54;93198.84;;;25.67;36.30
59289;BME280;45056;47.602;9.886;2023-06-26T08:20:22;93191.78;;;25.66;36.48
59289;BME280;45056;47.602;9.886;2023-06-26T08:22:50;93188.25;;;25.66;36.66
59289;BME280;45056;47.602;9.886;2023-06-26T08:25:20;93189.22;;;25.68;36.66
59289;BME280;45056;47.602;9.886;2023-06-26T08:27:48;93187.38;;;25.71;36.83
59289;BME280;45056;47.602;9.886;2023-06-26T08:30:19;93191.88;;;25.74;36.81
59289;BME280;45056;47.602;9.886;2023-06-26T08:32:46;93189.53;;;25.78;37.12
59289;BME280;45056;47.602;9.886;2023-06-26T08:35:16;93197.56;;;25.82;37.17
59289;BME280;45056;47.602;9.886;2023-06-26T08:37:44;93189.63;;;25.86;36.91
59289;BME280;45056;47.602;9.886;2023-06-26T08:40:12;93187.59;;;25.86;37.03
59289;BME280;45056;47.602;9.886;2023-06-26T08:42:45;93190.28;;;25.92;37.37
59289;BME280;45056;47.602;9.886;2023-06-26T08:45:13;93178.28;;;25.97;37.27
59289;BME280;45056;47.602;9.886;2023-06-26T08:47:44;93186.28;;;26.01;37.15
59289;BME280;45056;47.602;9.886;2023-06-26T08:50:20;93185.56;;;26.00;36.94
59289;BME280;45056;47.602;9.886;2023-06-26T08:52:56;93184.06;;;25.99;37.17
59289;BME280;45056;47.602;9.886;2023-06-26T08:55:37;93190.72;;;25.96;37.24
59289;BME280;45056;47.602;9.886;2023-06-26T08:58:08;93186.41;;;25.95;37.66
59289;BME280;45056;47.602;9.886;2023-06-26T09:00:38;93189.94;;;25.96;37.62
59289;BME280;45056;47.602;9.886;2023-06-26T09:03:07;93187.38;;;25.98;37.83
59289;BME280;45056;47.602;9.886;2023-06-26T09:05:38;93185.56;;;26.00;37.94
59289;BME280;45056;47.602;9.886;2023-06-26T09:08:06;93192.41;;;25.99;37.87
59289;BME280;45056;47.602;9.886;2023-06-26T09:10:35;93183.28;;;25.99;38.00
59289;BME280;45056;47.602;9.886;2023-06-26T09:13:03;93182.78;;;26.00;38.16
59289;BME280;45056;47.602;9.886;2023-06-26T09:15:37;93184.47;;;26.03;38.25
59289;BME280;45056;47.602;9.886;2023-06-26T09:18:06;93190.16;;;26.11;38.33
59289;BME280;45056;47.602;9.886;2023-06-26T09:20:34;93193.88;;;26.14;38.15
59289;BME280;45056;47.602;9.886;2023-06-26T09:23:04;93190.56;;;26.15;38.01
59289;BME280;45056;47.602;9.886;2023-06-26T09:25:33;93185.75;;;26.16;37.86
59289;BME280;45056;47.602;9.886;2023-06-26T09:28:01;93178.91;;;26.17;38.21
59289;BME280;45056;47.602;9.886;2023-06-26T09:30:31;93178.16;;;26.16;38.19
59289;BME280;45056;47.602;9.886;2023-06-26T09:33:14;93181.38;;;26.20;38.34
59289;BME280;45056;47.602;9.886;2023-06-26T09:35:43;93184.16;;;26.20;37.92
59289;BME280;45056;47.602;9.886;2023-06-26T09:38:14;93182.13;;;26.21;38.29
59289;BME280;45056;47.602;9.886;2023-06-26T09:40:44;93174.50;;;26.21;38.28
59289;BME280;45056;47.602;9.886;2023-06-26T09:43:13;93176.97;;;26.25;38.12
59289;BME280;45056;47.602;9.886;2023-06-26T09:45:41;93181.25;;;26.26;38.26
59289;BME280;45056;47.602;9.886;2023-06-26T09:48:09;93175.88;;;26.28;37.73
59289;BME280;45056;47.602;9.886;2023-06-26T09:50:41;93180.91;;;26.30;38.10
59289;BME280;45056;47.602;9.886;2023-06-26T09:53:11;93183.91;;;26.32;38.34
59289;BME280;45056;47.602;9.886;2023-06-26T09:55:41;93180.03;;;26.35;38.01
59289;BME280;45056;47.602;9.886;2023-06-26T09:58:11;93175.22;;;26.35;37.89
59289;BME280;45056;47.602;9.886;2023-06-26T10:00:42;93177.13;;;26.41;38.14
59289;BME280;45056;47.602;9.886;2023-06-26T10:03:10;93181.84;;;26.46;38.21
59289;BME280;45056;47.602;9.886;2023-06-26T10:05:40;93175.94;;;26.49;37.73
59289;BME280;45056;47.602;9.886;2023-06-26T10:08:09;93177.84;;;26.55;37.43
59289;BME280;45056;47.602;9.886;2023-06-26T10:10:43;93185.91;;;26.58;37.62
59289;BME280;45056;47.602;9.886;2023-06-26T10:13:17;93185.22;;;26.65;37.93
59289;BME280;45056;47.602;9.886;2023-06-26T10:15:51;93176.72;;;26.71;37.91
59289;BME280;45056;47.602;9.886;2023-06-26T10:18:21;93173.06;;;26.76;37.97
59289;BME280;45056;47.602;9.886;2023-06-26T10:20:55;93174.75;;;26.79;38.04
59289;BME280;45056;47.602;9.886;2023-06-26T10:23:25;93171.59;;;26.83;38.39
59289;BME280;45056;47.602;9.886;2023-06-26T10:25:58;93182.78;;;26.83;37.95
59289;BME280;45056;47.602;9.886;2023-06-26T10:28:31;93175.69;;;26.82;38.54
59289;BME280;45056;47.602;9.886;2023-06-26T10:31:04;93168.63;;;26.81;37.89
59289;BME280;45056;47.602;9.886;2023-06-26T10:33:36;93179.03;;;26.81;38.38
59289;BME280;45056;47.602;9.886;2023-06-26T10:36:16;93178.28;;;26.80;38.24
59289;BME280;45056;47.602;9.886;2023-06-26T10:38:49;93175.50;;;26.80;38.08
59289;BME280;45056;47.602;9.886;2023-06-26T10:41:23;93179.03;;;26.81;38.04
59289;BME280;45056;47.602;9.886;2023-06-26T10:44:06;93171.88;;;26.85;38.08
59289;BME280;45056;47.602;9.886;2023-06-26T10:46:48;93176.00;;;26.92;38.16
59289;BME280;45056;47.602;9.886;2023-06-26T10:49:20;93179.63;;;27.00;37.72
59289;BME280;45056;47.602;9.886;2023-06-26T10:51:50;93177.09;;;27.10;37.67
59289;BME280;45056;47.602;9.886;2023-06-26T10:54:19;93169.94;;;27.22;37.63
59289;BME280;45056;47.602;9.886;2023-06-26T10:56:50;93173.06;;;27.40;37.11
59289;BME280;45056;47.602;9.886;2023-06-26T10:59:25;93181.78;;;27.58;36.63
59289;BME280;45056;47.602;9.886;2023-06-26T11:01:55;93179.69;;;27.79;36.71
59289;BME280;45056;47.602;9.886;2023-06-26T11:04:38;93170.28;;;27.98;36.08
59289;BME280;45056;47.602;9.886;2023-06-26T11:07:19;93170.34;;;28.14;35.90
59289;BME280;45056;47.602;9.886;2023-06-26T11:09:59;93159.81;;;28.28;35.32
59289;BME280;45056;47.602;9.886;2023-06-26T11:12:36;93171.19;;;28.37;35.41
59289;BME280;45056;47.602;9.886;2023-06-26T11:15:10;93178.13;;;28.44;35.65
59289;BME280;45056;47.602;9.886;2023-06-26T11:17:40;93176.09;;;28.52;35.47
59289;BME280;45056;47.602;9.886;2023-06-26T11:20:10;93174.09;;;28.61;34.68
59289;BME280;45056;47.602;9.886;2023-06-26T11:22:42;93176.69;;;28.66;33.82
59289;BME280;45056;47.602;9.886;2023-06-26T11:25:10;93170.22;;;28.72;34.11
59289;BME280;45056;47.602;9.886;2023-06-26T11:27:41;93173.41;;;28.84;34.74
59289;BME280;45056;47.602;9.886;2023-06-26T11:30:11;93170.09;;;28.93;33.78
59289;BME280;45056;47.602;9.886;2023-06-26T11:32:51;93174.00;;;28.90;32.51
59289;BME280;45056;47.602;9.886;2023-06-26T11:35:22;93181.06;;;28.83;33.00
59289;BME280;45056;47.602;9.886;2023-06-26T11:37:56;93174.72;;;28.83;33.08
59289;BME280;45056;47.602;9.886;2023-06-26T11:40:27;93169.50;;;28.87;33.14
59289;BME280;45056;47.602;9.886;2023-06-26T11:43:00;93176.22;;;28.91;33.58
59289;BME280;45056;47.602;9.886;2023-06-26T11:45:31;93173.81;;;28.96;33.15
59289;BME280;45056;47.602;9.886;2023-06-26T11:48:00;93172.88;;;29.01;32.90
59289;BME280;45056;47.602;9.886;2023-06-26T11:50:28;93185.03;;;29.03;32.88
59289;BME280;45056;47.602;9.886;2023-06-26T11:52:58;93176.06;;;29.05;32.71
59289;BME280;45056;47.602;9.886;2023-06-26T11:55:40;93178.88;;;29.05;32.45
59289;BME280;45056;47.602;9.886;2023-06-26T11:58:11;93171.19;;;29.05;32.29
59289;BME280;45056;47.602;9.886;2023-06-26T12:00:41;93181.84;;;29.07;32.60
59289;BME280;45056;47.602;9.886;2023-06-26T12:03:10;93168.03;;;29.09;32.69
59289;BME280;45056;47.602;9.886;2023-06-26T12:05:38;93171.03;;;29.11;32.23
59289;BME280;45056;47.602;9.886;2023-06-26T12:08:07;93167.66;;;29.13;32.19
59289;BME280;45056;47.602;9.886;2023-06-26T12:10:36;93160.19;;;29.15;32.10
59289;BME280;45056;47.602;9.886;2023-06-26T12:13:04;93162.06;;;29.20;31.08
59289;BME280;45056;47.602;9.886;2023-06-26T12:15:34;93175.53;;;29.22;31.57
59289;BME280;45056;47.602;9.886;2023-06-26T12:18:08;93179.25;;;29.25;31.64
59289;BME280;45056;47.602;9.886;2023-06-26T12:20:40;93172.34;;;29.26;31.19
59289;BME280;45056;47.602;9.886;2023-06-26T12:23:12;93167.09;;;29.30;31.99
59289;BME280;45056;47.602;9.886;2023-06-26T12:25:40;93171.41;;;29.38;31.86
59289;BME280;45056;47.602;9.886;2023-06-26T12:28:16;93164.88;;;29.44;30.75
59289;BME280;45056;47.602;9.886;2023-06-26T12:31:12;93166.38;;;29.45;30.07
59289;BME280;45056;47.602;9.886;2023-06-26T12:33:42;93174.78;;;29.45;30.26
59289;BME280;45056;47.602;9.886;2023-06-26T12:36:11;93172.91;;;29.47;30.64
59289;BME280;45056;47.602;9.886;2023-06-26T12:38:40;93177.41;;;29.50;31.06
59289;BME280;45056;47.602;9.886;2023-06-26T12:41:12;93168.81;;;29.56;31.10
59289;BME280;45056;47.602;9.886;2023-06-26T12:43:41;93172.72;;;29.61;30.44
59289;BME280;45056;47.602;9.886;2023-06-26T12:46:12;93154.56;;;29.62;30.34
59289;BME280;45056;47.602;9.886;2023-06-26T12:48:41;93143.38;;;29.62;30.16
59289;BME280;45056;47.602;9.886;2023-06-26T12:51:15;93158.88;;;29.63;30.50
59289;BME280;45056;47.602;9.886;2023-06-26T12:53:44;93148.06;;;29.67;30.70
59289;BME280;45056;47.602;9.886;2023-06-26T12:56:12;93145.63;;;29.71;30.39
59289;BME280;45056;47.602;9.886;2023-06-26T12:58:40;93133.81;;;29.73;30.33
59289;BME280;45056;47.602;9.886;2023-06-26T13:01:10;93135.13;;;29.79;30.53
59289;BME280;45056;47.602;9.886;2023-06-26T13:03:41;93134.16;;;29.85;30.50
59289;BME280;45056;47.602;9.886;2023-06-26T13:06:09;93136.19;;;29.92;30.37
59289;BME280;45056;47.602;9.886;2023-06-26T13:08:37;93139.38;;;29.96;29.78
59289;BME280;45056;47.602;9.886;2023-06-26T13:11:05;93129.84;;;29.99;30.22
59289;BME280;45056;47.602;9.886;2023-06-26T13:13:33;93126.84;;;30.05;30.08